sensor_id;sensor_type;location;lat;lon;timestamp;pressure;altitude;pressure_sealevel;temperature;humidity
32324;BME280;25666;44.350;9.222;2023-01-28T00:01:29;101494.53;;;6.43;59.22
32324;BME280;25666;44.350;9.222;2023-01-28T00:03:55;101472.13;;;6.44;59.80
32324;BME280;25666;44.350;9.222;2023-01-28T00:06:20;101473.56;;;6.42;59.33
32324;BME280;25666;44.350;9.222;2023-01-28T00:08:45;101464.06;;;6.48;58.59
32324;BME280;25666;44.350;9.222;2023-01-28T00:11:12;101473.88;;;6.40;59.71
32324;BME280;25666;44.350;9.222;2023-01-28T00:13:39;101462.81;;;6.40;59.93
32324;BME280;25666;44.350;9.222;2023-01-28T00:16:06;101458.53;;;6.48;59.44
32324;BME280;25666;44.350;9.222;2023-01-28T00:18:36;101478.78;;;6.43;59.82
32324;BME280;25666;44.350;9.222;2023-01-28T00:23:34;101464.34;;;6.46;58.04
32324;BME280;25666;44.350;9.222;2023-01-28T00:26:01;101480.66;;;6.48;58.25
32324;BME280;25666;44.350;9.222;2023-01-28T00:28:43;101466.59;;;6.44;57.60
32324;BME280;25666;44.350;9.222;2023-01-28T00:31:11;101491.28;;;6.41;58.08
32324;BME280;25666;44.350;9.222;2023-01-28T00:33:37;101480.72;;;6.43;57.45
32324;BME280;25666;44.350;9.222;2023-01-28T00:36:04;101479.91;;;6.42;57.75
32324;BME280;25666;44.350;9.222;2023-01-28T00:38:31;101491.56;;;6.39;58.09
32324;BME280;25666;44.350;9.222;2023-01-28T00:41:07;101499.56;;;6.41;57.31
32324;BME280;25666;44.350;9.222;2023-01-28T00:43:34;101496.81;;;6.41;57.61
32324;BME280;25666;44.350;9.222;2023-01-28T00:46:01;101485.97;;;6.44;56.71
32324;BME280;25666;44.350;9.222;2023-01-28T00:48:27;101506.75;;;6.42;57.63
32324;BME280;25666;44.350;9.222;2023-01-28T00:50:52;101525.34;;;6.36;57.38
32324;BME280;25666;44.350;9.222;2023-01-28T00:53:18;101501.06;;;6.33;58.08
32324;BME280;25666;44.350;9.222;2023-01-28T00:55:44;101510.41;;;6.37;57.80
32324;BME280;25666;44.350;9.222;2023-01-28T00:58:10;101495.16;;;6.40;57.57
32324;BME280;25666;44.350;9.222;2023-01-28T01:00:36;101502.94;;;6.38;58.38
32324;BME280;25666;44.350;9.222;2023-01-28T01:03:01;101492.50;;;6.35;57.74
32324;BME280;25666;44.350;9.222;2023-01-28T01:05:30;101489.19;;;6.33;58.13
32324;BME280;25666;44.350;9.222;2023-01-28T01:07:59;101492.38;;;6.40;58.13
32324;BME280;25666;44.350;9.222;2023-01-28T01:10:25;101491.97;;;6.33;58.30
32324;BME280;25666;44.350;9.222;2023-01-28T01:12:51;101507.16;;;6.35;57.74
32324;BME280;25666;44.350;9.222;2023-01-28T01:15:18;101496.88;;;6.36;57.63
32324;BME280;25666;44.350;9.222;2023-01-28T01:17:46;101490.56;;;6.35;58.36
32324;BME280;25666;44.350;9.222;2023-01-28T01:20:19;101498.91;;;6.30;58.61
32324;BME280;25666;44.350;9.222;2023-01-28T01:22:45;101512.97;;;6.34;58.84
32324;BME280;25666;44.350;9.222;2023-01-28T01:25:12;101512.13;;;6.33;58.50
32324;BME280;25666;44.350;9.222;2023-01-28T01:27:39;101498.91;;;6.30;59.51
32324;BME280;25666;44.350;9.222;2023-01-28T01:30:06;101508.25;;;6.34;58.43
32324;BME280;25666;44.350;9.222;2023-01-28T01:32:33;101501.06;;;6.33;58.98
32324;BME280;25666;44.350;9.222;2023-01-28T01:35:00;101503.22;;;6.36;59.77
32324;BME280;25666;44.350;9.222;2023-01-28T01:37:26;101500.56;;;6.31;59.62
32324;BME280;25666;44.350;9.222;2023-01-28T01:39:51;101505.00;;;6.32;59.27
32324;BME280;25666;44.350;9.222;2023-01-28T01:42:17;101502.72;;;6.34;58.91
32324;BME280;25666;44.350;9.222;2023-01-28T01:47:52;101497.91;;;6.40;58.67
32324;BME280;25666;44.350;9.222;2023-01-28T01:52:55;101491.78;;;6.43;59.24
32324;BME280;25666;44.350;9.222;2023-01-28T01:55:23;101491.56;;;6.39;59.88
32324;BME280;25666;44.350;9.222;2023-01-28T01:57:51;101498.47;;;6.42;60.08
32324;BME280;25666;44.350;9.222;2023-01-28T02:00:20;101507.22;;;6.30;60.87
32324;BME280;25666;44.350;9.222;2023-01-28T02:02:47;101496.31;;;6.39;60.77
32324;BME280;25666;44.350;9.222;2023-01-28T02:05:18;101501.50;;;6.40;65.99
32324;BME280;25666;44.350;9.222;2023-01-28T02:07:48;101507.75;;;6.32;74.63
32324;BME280;25666;44.350;9.222;2023-01-28T02:10:16;101515.00;;;6.28;78.15
32324;BME280;25666;44.350;9.222;2023-01-28T02:12:46;101514.56;;;6.21;79.91
32324;BME280;25666;44.350;9.222;2023-01-28T02:15:18;101516.75;;;6.06;84.11
32324;BME280;25666;44.350;9.222;2023-01-28T02:17:53;101511.22;;;6.06;83.76
32324;BME280;25666;44.350;9.222;2023-01-28T02:20:32;101509.91;;;5.84;91.36
32324;BME280;25666;44.350;9.222;2023-01-28T02:23:24;101512.09;;;5.87;92.70
32324;BME280;25666;44.350;9.222;2023-01-28T02:26:15;101510.72;;;5.85;96.29
32324;BME280;25666;44.350;9.222;2023-01-28T02:34:47;101502.22;;;5.81;92.62
32324;BME280;25666;44.350;9.222;2023-01-28T02:37:20;101504.16;;;5.81;94.82
32324;BME280;25666;44.350;9.222;2023-01-28T02:39:49;101512.16;;;5.82;99.50
32324;BME280;25666;44.350;9.222;2023-01-28T02:42:21;101519.06;;;5.80;100.00
32324;BME280;25666;44.350;9.222;2023-01-28T02:44:48;101519.38;;;5.78;100.00
32324;BME280;25666;44.350;9.222;2023-01-28T02:50:18;101510.78;;;5.80;100.00
32324;BME280;25666;44.350;9.222;2023-01-28T02:58:52;101510.78;;;5.80;100.00
32324;BME280;25666;44.350;9.222;2023-01-28T03:01:27;101511.09;;;5.78;100.00
32324;BME280;25666;44.350;9.222;2023-01-28T03:04:09;101510.56;;;5.76;100.00
32324;BME280;25666;44.350;9.222;2023-01-28T03:06:44;101509.53;;;5.72;100.00
32324;BME280;25666;44.350;9.222;2023-01-28T03:11:53;101507.38;;;5.69;100.00
32324;BME280;25666;44.350;9.222;2023-01-28T03:14:39;101505.63;;;5.73;100.00
32324;BME280;25666;44.350;9.222;2023-01-28T03:17:47;101502.06;;;5.54;100.00
32324;BME280;25666;44.350;9.222;2023-01-28T03:21:14;101499.81;;;5.56;100.00
32324;BME280;25666;44.350;9.222;2023-01-28T03:24:22;101505.13;;;5.71;100.00
32324;BME280;25666;44.350;9.222;2023-01-28T03:27:43;101504.97;;;5.63;100.00
32324;BME280;25666;44.350;9.222;2023-01-28T03:30:42;101503.88;;;5.64;100.00
32324;BME280;25666;44.350;9.222;2023-01-28T03:33:37;101496.91;;;5.66;100.00
32324;BME280;25666;44.350;9.222;2023-01-28T03:36:22;101500.28;;;5.45;100.00
32324;BME280;25666;44.350;9.222;2023-01-28T03:39:24;101495.56;;;5.45;100.00
32324;BME280;25666;44.350;9.222;2023-01-28T03:42:03;101497.34;;;5.55;100.00
32324;BME280;25666;44.350;9.222;2023-01-28T03:44:30;101502.88;;;5.55;100.00
32324;BME280;25666;44.350;9.222;2023-01-28T03:47:26;101493.78;;;5.54;100.00
32324;BME280;25666;44.350;9.222;2023-01-28T03:49:57;101494.59;;;5.55;100.00
32324;BME280;25666;44.350;9.222;2023-01-28T03:52:29;101495.59;;;5.64;100.00
32324;BME280;25666;44.350;9.222;2023-01-28T03:55:09;101501.69;;;5.79;100.00
32324;BME280;25666;44.350;9.222;2023-01-28T03:57:39;101501.09;;;5.82;99.62
32324;BME280;25666;44.350;9.222;2023-01-28T04:00:06;101499.31;;;5.91;97.40
32324;BME280;25666;44.350;9.222;2023-01-28T04:02:39;101502.31;;;5.95;95.60
32324;BME280;25666;44.350;9.222;2023-01-28T04:05:08;101502.81;;;5.97;100.00
32324;BME280;25666;44.350;9.222;2023-01-28T04:07:40;101503.19;;;5.90;100.00
32324;BME280;25666;44.350;9.222;2023-01-28T04:10:38;101505.25;;;5.99;98.11
32324;BME280;25666;44.350;9.222;2023-01-28T04:13:21;101500.78;;;6.03;92.17
32324;BME280;25666;44.350;9.222;2023-01-28T04:15:47;101508.19;;;6.07;98.06
32324;BME280;25666;44.350;9.222;2023-01-28T04:18:14;101512.28;;;6.10;88.08
32324;BME280;25666;44.350;9.222;2023-01-28T04:20:40;101505.53;;;6.16;88.12
32324;BME280;25666;44.350;9.222;2023-01-28T04:23:06;101515.69;;;6.20;89.95
32324;BME280;25666;44.350;9.222;2023-01-28T04:25:33;101523.25;;;6.15;92.33
32324;BME280;25666;44.350;9.222;2023-01-28T04:28:01;101520.25;;;6.11;89.12
32324;BME280;25666;44.350;9.222;2023-01-28T04:30:31;101524.44;;;6.09;90.35
32324;BME280;25666;44.350;9.222;2023-01-28T04:33:19;101533.28;;;6.11;87.00
32324;BME280;25666;44.350;9.222;2023-01-28T04:35:54;101532.97;;;6.12;87.13
32324;BME280;25666;44.350;9.222;2023-01-28T04:38:38;101526.59;;;6.12;86.83
32324;BME280;25666;44.350;9.222;2023-01-28T04:41:27;101537.97;;;6.10;86.36
32324;BME280;25666;44.350;9.222;2023-01-28T04:43:57;101528.09;;;6.23;86.42
32324;BME280;25666;44.350;9.222;2023-01-28T04:46:49;101536.16;;;6.19;93.46
32324;BME280;25666;44.350;9.222;2023-01-28T04:49:26;101536.91;;;6.25;88.43
32324;BME280;25666;44.350;9.222;2023-01-28T04:52:10;101547.22;;;6.19;88.48
32324;BME280;25666;44.350;9.222;2023-01-28T04:54:55;101541.81;;;6.28;88.50
32324;BME280;25666;44.350;9.222;2023-01-28T04:57:22;101547.84;;;6.16;90.10
32324;BME280;25666;44.350;9.222;2023-01-28T04:59:48;101544.53;;;6.14;92.09
32324;BME280;25666;44.350;9.222;2023-01-28T05:02:14;101555.97;;;6.08;93.03
32324;BME280;25666;44.350;9.222;2023-01-28T05:04:42;101559.31;;;6.05;92.26
32324;BME280;25666;44.350;9.222;2023-01-28T05:07:11;101559.31;;;6.05;90.66
32324;BME280;25666;44.350;9.222;2023-01-28T05:09:37;101557.16;;;6.02;90.84
32324;BME280;25666;44.350;9.222;2023-01-28T05:12:03;101562.53;;;6.12;91.55
32324;BME280;25666;44.350;9.222;2023-01-28T05:14:31;101566.50;;;6.06;86.84
32324;BME280;25666;44.350;9.222;2023-01-28T05:17:03;101563.69;;;6.11;86.66
32324;BME280;25666;44.350;9.222;2023-01-28T05:19:28;101576.81;;;6.19;89.97
32324;BME280;25666;44.350;9.222;2023-01-28T05:21:55;101569.13;;;6.16;90.64
32324;BME280;25666;44.350;9.222;2023-01-28T05:24:46;101574.75;;;6.11;91.50
32324;BME280;25666;44.350;9.222;2023-01-28T05:27:12;101574.41;;;6.12;91.94
32324;BME280;25666;44.350;9.222;2023-01-28T05:29:39;101574.78;;;6.06;93.74
32324;BME280;25666;44.350;9.222;2023-01-28T05:32:04;101582.63;;;5.99;94.74
32324;BME280;25666;44.350;9.222;2023-01-28T05:34:30;101575.63;;;6.06;94.03
32324;BME280;25666;44.350;9.222;2023-01-28T05:36:59;101585.25;;;6.09;94.44
32324;BME280;25666;44.350;9.222;2023-01-28T05:39:30;101580.53;;;6.09;90.93
32324;BME280;25666;44.350;9.222;2023-01-28T05:41:56;101583.31;;;6.09;90.57
32324;BME280;25666;44.350;9.222;2023-01-28T05:44:22;101589.56;;;6.15;90.51
32324;BME280;25666;44.350;9.222;2023-01-28T05:47:08;101589.94;;;6.08;90.93
32324;BME280;25666;44.350;9.222;2023-01-28T05:50:06;101597.03;;;6.14;89.18
32324;BME280;25666;44.350;9.222;2023-01-28T05:52:41;101598.31;;;6.22;92.92
32324;BME280;25666;44.350;9.222;2023-01-28T05:55:15;101590.13;;;6.17;87.98
32324;BME280;25666;44.350;9.222;2023-01-28T05:57:41;101587.34;;;6.17;87.95
32324;BME280;25666;44.350;9.222;2023-01-28T06:00:10;101595.09;;;6.15;87.71
32324;BME280;25666;44.350;9.222;2023-01-28T06:02:43;101597.63;;;6.11;86.77
32324;BME280;25666;44.350;9.222;2023-01-28T06:05:11;101591.81;;;6.13;87.82
32324;BME280;25666;44.350;9.222;2023-01-28T06:07:43;101599.06;;;6.09;87.69
32324;BME280;25666;44.350;9.222;2023-01-28T06:10:09;101599.81;;;6.14;89.29
32324;BME280;25666;44.350;9.222;2023-01-28T06:12:35;101607.06;;;6.10;85.96
32324;BME280;25666;44.350;9.222;2023-01-28T06:15:19;101605.41;;;6.09;86.66
32324;BME280;25666;44.350;9.222;2023-01-28T06:18:04;101602.81;;;5.99;85.33
32324;BME280;25666;44.350;9.222;2023-01-28T06:20:33;101602.94;;;6.08;86.50
32324;BME280;25666;44.350;9.222;2023-01-28T06:22:59;101606.13;;;6.01;87.96
32324;BME280;25666;44.350;9.222;2023-01-28T06:25:25;101607.44;;;6.04;87.94
32324;BME280;25666;44.350;9.222;2023-01-28T06:27:51;101614.53;;;6.10;86.63
32324;BME280;25666;44.350;9.222;2023-01-28T06:30:16;101610.94;;;6.09;88.86
32324;BME280;25666;44.350;9.222;2023-01-28T06:32:42;101610.72;;;6.06;86.14
32324;BME280;25666;44.350;9.222;2023-01-28T06:35:09;101621.78;;;6.06;87.12
32324;BME280;25666;44.350;9.222;2023-01-28T06:37:35;101619.53;;;6.08;88.04
32324;BME280;25666;44.350;9.222;2023-01-28T06:40:01;101621.19;;;6.09;86.58
32324;BME280;25666;44.350;9.222;2023-01-28T06:42:27;101621.19;;;6.09;89.54
32324;BME280;25666;44.350;9.222;2023-01-28T06:44:52;101624.78;;;6.09;89.21
32324;BME280;25666;44.350;9.222;2023-01-28T06:47:18;101632.09;;;6.00;96.13
32324;BME280;25666;44.350;9.222;2023-01-28T06:49:44;101633.78;;;5.96;88.17
32324;BME280;25666;44.350;9.222;2023-01-28T06:52:09;101635.31;;;6.07;89.74
32324;BME280;25666;44.350;9.222;2023-01-28T06:54:35;101638.06;;;6.07;87.63
32324;BME280;25666;44.350;9.222;2023-01-28T06:57:00;101635.09;;;6.04;86.41
32324;BME280;25666;44.350;9.222;2023-01-28T06:59:26;101634.63;;;6.15;87.24
32324;BME280;25666;44.350;9.222;2023-01-28T07:01:51;101633.81;;;6.15;88.70
32324;BME280;25666;44.350;9.222;2023-01-28T07:04:16;101638.31;;;6.11;83.83
32324;BME280;25666;44.350;9.222;2023-01-28T07:06:42;101637.38;;;6.15;81.28
32324;BME280;25666;44.350;9.222;2023-01-28T07:09:07;101630.59;;;6.26;87.40
32324;BME280;25666;44.350;9.222;2023-01-28T07:11:33;101631.63;;;6.12;100.00
32324;BME280;25666;44.350;9.222;2023-01-28T07:13:58;101647.75;;;6.05;100.00
32324;BME280;25666;44.350;9.222;2023-01-28T07:16:24;101642.63;;;6.17;97.68
32324;BME280;25666;44.350;9.222;2023-01-28T07:18:49;101646.06;;;6.27;97.15
32324;BME280;25666;44.350;9.222;2023-01-28T07:21:15;101646.28;;;6.31;95.07
32324;BME280;25666;44.350;9.222;2023-01-28T07:23:41;101660.59;;;6.33;100.00
32324;BME280;25666;44.350;9.222;2023-01-28T07:26:06;101652.84;;;6.35;97.52
32324;BME280;25666;44.350;9.222;2023-01-28T07:28:32;101657.69;;;6.43;97.35
32324;BME280;25666;44.350;9.222;2023-01-28T07:30:57;101659.94;;;6.41;95.95
32324;BME280;25666;44.350;9.222;2023-01-28T07:33:23;101660.19;;;6.44;97.39
32324;BME280;25666;44.350;9.222;2023-01-28T07:35:49;101656.81;;;6.47;96.49
32324;BME280;25666;44.350;9.222;2023-01-28T07:38:14;101660.19;;;6.44;94.84
32324;BME280;25666;44.350;9.222;2023-01-28T07:40:40;101662.63;;;6.46;92.74
32324;BME280;25666;44.350;9.222;2023-01-28T07:43:09;101678.00;;;6.52;99.76
32324;BME280;25666;44.350;9.222;2023-01-28T07:45:37;101677.72;;;6.54;98.91
32324;BME280;25666;44.350;9.222;2023-01-28T07:48:05;101682.66;;;6.57;100.00
32324;BME280;25666;44.350;9.222;2023-01-28T07:50:32;101683.63;;;6.66;100.00
32324;BME280;25666;44.350;9.222;2023-01-28T07:52:58;101688.53;;;6.69;100.00
32324;BME280;25666;44.350;9.222;2023-01-28T07:55:26;101678.53;;;6.73;100.00
32324;BME280;25666;44.350;9.222;2023-01-28T07:57:53;101685.09;;;6.77;93.51
32324;BME280;25666;44.350;9.222;2023-01-28T08:00:20;101693.78;;;6.70;100.00
32324;BME280;25666;44.350;9.222;2023-01-28T08:02:47;101693.25;;;6.68;100.00
32324;BME280;25666;44.350;9.222;2023-01-28T08:05:20;101706.47;;;6.71;100.00
32324;BME280;25666;44.350;9.222;2023-01-28T08:07:46;101710.75;;;6.82;100.00
32324;BME280;25666;44.350;9.222;2023-01-28T08:10:16;101707.00;;;6.92;100.00
32324;BME280;25666;44.350;9.222;2023-01-28T08:12:52;101717.44;;;6.95;100.00
32324;BME280;25666;44.350;9.222;2023-01-28T08:15:18;101719.41;;;7.08;96.76
32324;BME280;25666;44.350;9.222;2023-01-28T08:17:44;101723.97;;;7.18;96.06
32324;BME280;25666;44.350;9.222;2023-01-28T08:20:09;101725.72;;;7.27;91.03
32324;BME280;25666;44.350;9.222;2023-01-28T08:22:35;101720.22;;;7.41;88.98
32324;BME280;25666;44.350;9.222;2023-01-28T08:25:01;101724.34;;;7.57;87.95
32324;BME280;25666;44.350;9.222;2023-01-28T08:27:26;101717.09;;;7.61;84.75
32324;BME280;25666;44.350;9.222;2023-01-28T08:29:52;101729.28;;;7.60;85.18
32324;BME280;25666;44.350;9.222;2023-01-28T08:32:17;101736.88;;;7.68;78.82
32324;BME280;25666;44.350;9.222;2023-01-28T08:34:42;101727.94;;;7.71;76.52
32324;BME280;25666;44.350;9.222;2023-01-28T08:37:08;101726.50;;;7.74;73.42
32324;BME280;25666;44.350;9.222;2023-01-28T08:39:33;101741.50;;;7.86;72.73
32324;BME280;25666;44.350;9.222;2023-01-28T08:41:59;101734.00;;;7.87;72.02
32324;BME280;25666;44.350;9.222;2023-01-28T08:44:24;101731.22;;;8.00;71.81
32324;BME280;25666;44.350;9.222;2023-01-28T08:46:50;101729.69;;;7.94;68.65
32324;BME280;25666;44.350;9.222;2023-01-28T08:49:16;101729.78;;;7.89;66.79
32324;BME280;25666;44.350;9.222;2023-01-28T08:51:41;101741.28;;;7.96;65.74
32324;BME280;25666;44.350;9.222;2023-01-28T08:54:07;101744.38;;;7.95;63.05
32324;BME280;25666;44.350;9.222;2023-01-28T08:56:32;101745.84;;;7.92;64.52
32324;BME280;25666;44.350;9.222;2023-01-28T08:58:58;101748.78;;;7.96;64.87
32324;BME280;25666;44.350;9.222;2023-01-28T09:01:23;101750.44;;;8.11;67.34
32324;BME280;25666;44.350;9.222;2023-01-28T09:03:50;101748.16;;;7.99;64.04
32324;BME280;25666;44.350;9.222;2023-01-28T09:06:15;101750.22;;;7.93;63.26
32324;BME280;25666;44.350;9.222;2023-01-28T09:08:41;101740.25;;;8.06;70.97
32324;BME280;25666;44.350;9.222;2023-01-28T09:11:06;101742.00;;;8.16;68.78
32324;BME280;25666;44.350;9.222;2023-01-28T09:13:32;101751.22;;;8.25;65.21
32324;BME280;25666;44.350;9.222;2023-01-28T09:15:57;101747.41;;;8.21;64.67
32324;BME280;25666;44.350;9.222;2023-01-28T09:18:23;101753.72;;;8.26;65.53
32324;BME280;25666;44.350;9.222;2023-01-28T09:20:48;101761.13;;;8.17;63.77
32324;BME280;25666;44.350;9.222;2023-01-28T09:23:14;101758.63;;;8.16;63.92
32324;BME280;25666;44.350;9.222;2023-01-28T09:25:40;101764.63;;;7.95;63.39
32324;BME280;25666;44.350;9.222;2023-01-28T09:28:05;101751.06;;;7.94;65.05
32324;BME280;25666;44.350;9.222;2023-01-28T09:30:32;101747.47;;;8.07;59.77
32324;BME280;25666;44.350;9.222;2023-01-28T09:32:57;101758.53;;;8.21;64.10
32324;BME280;25666;44.350;9.222;2023-01-28T09:35:23;101760.00;;;8.04;61.78
32324;BME280;25666;44.350;9.222;2023-01-28T09:37:49;101765.00;;;8.02;63.89
32324;BME280;25666;44.350;9.222;2023-01-28T09:40:37;101762.03;;;8.13;64.37
32324;BME280;25666;44.350;9.222;2023-01-28T09:43:12;101772.19;;;7.90;62.11
32324;BME280;25666;44.350;9.222;2023-01-28T09:45:45;101763.69;;;8.00;62.26
32324;BME280;25666;44.350;9.222;2023-01-28T09:48:23;101758.63;;;8.16;62.79
32324;BME280;25666;44.350;9.222;2023-01-28T09:50:55;101755.16;;;8.10;62.71
32324;BME280;25666;44.350;9.222;2023-01-28T09:53:29;101758.97;;;8.14;63.44
32324;BME280;25666;44.350;9.222;2023-01-28T09:58:24;101765.00;;;8.16;62.27
32324;BME280;25666;44.350;9.222;2023-01-28T10:09:47;101766.56;;;8.36;60.91
32324;BME280;25666;44.350;9.222;2023-01-28T10:12:26;101762.66;;;8.37;60.94
32324;BME280;25666;44.350;9.222;2023-01-28T10:15:09;101754.31;;;8.37;61.53
32324;BME280;25666;44.350;9.222;2023-01-28T10:17:44;101766.31;;;8.46;61.72
32324;BME280;25666;44.350;9.222;2023-01-28T10:22:46;101761.38;;;8.56;60.71
32324;BME280;25666;44.350;9.222;2023-01-28T10:25:21;101760.13;;;8.63;61.24
32324;BME280;25666;44.350;9.222;2023-01-28T10:27:49;101764.16;;;8.56;57.42
32324;BME280;25666;44.350;9.222;2023-01-28T10:32:48;101760.44;;;8.61;57.90
32324;BME280;25666;44.350;9.222;2023-01-28T10:35:15;101777.81;;;8.53;56.17
32324;BME280;25666;44.350;9.222;2023-01-28T10:37:41;101759.84;;;8.50;55.42
32324;BME280;25666;44.350;9.222;2023-01-28T10:40:16;101757.16;;;8.59;55.80
32324;BME280;25666;44.350;9.222;2023-01-28T10:42:42;101762.19;;;8.71;54.93
32324;BME280;25666;44.350;9.222;2023-01-28T10:45:20;101770.31;;;8.53;55.08
32324;BME280;25666;44.350;9.222;2023-01-28T10:48:16;101760.75;;;8.59;55.71
32324;BME280;25666;44.350;9.222;2023-01-28T10:50:54;101752.84;;;8.53;54.22
32324;BME280;25666;44.350;9.222;2023-01-28T10:55:59;101769.56;;;8.61;53.71
32324;BME280;25666;44.350;9.222;2023-01-28T10:58:30;101780.81;;;8.56;54.43
32324;BME280;25666;44.350;9.222;2023-01-28T11:01:06;101760.31;;;8.66;53.89
32324;BME280;25666;44.350;9.222;2023-01-28T11:03:32;101748.59;;;8.69;53.03
32324;BME280;25666;44.350;9.222;2023-01-28T11:06:00;101750.75;;;8.72;52.95
32324;BME280;25666;44.350;9.222;2023-01-28T11:08:28;101742.91;;;8.74;53.00
32324;BME280;25666;44.350;9.222;2023-01-28T11:10:55;101755.16;;;8.73;53.42
32324;BME280;25666;44.350;9.222;2023-01-28T11:13:29;101750.03;;;8.67;54.45
32324;BME280;25666;44.350;9.222;2023-01-28T11:16:01;101750.72;;;8.86;53.44
32324;BME280;25666;44.350;9.222;2023-01-28T11:18:30;101751.13;;;8.79;53.18
32324;BME280;25666;44.350;9.222;2023-01-28T11:21:03;101740.72;;;8.85;54.01
32324;BME280;25666;44.350;9.222;2023-01-28T11:23:32;101736.81;;;8.86;54.87
32324;BME280;25666;44.350;9.222;2023-01-28T11:26:12;101728.50;;;8.86;54.81
32324;BME280;25666;44.350;9.222;2023-01-28T11:28:40;101738.25;;;8.61;52.97
32324;BME280;25666;44.350;9.222;2023-01-28T11:31:09;101736.94;;;8.81;53.37
32324;BME280;25666;44.350;9.222;2023-01-28T11:33:44;101744.53;;;8.89;53.32
32324;BME280;25666;44.350;9.222;2023-01-28T11:36:15;101736.44;;;8.79;52.42
32324;BME280;25666;44.350;9.222;2023-01-28T11:41:13;101748.59;;;8.69;51.89
32324;BME280;25666;44.350;9.222;2023-01-28T11:43:40;101754.16;;;8.69;51.68
32324;BME280;25666;44.350;9.222;2023-01-28T12:00:08;101716.75;;;9.11;51.41
32324;BME280;25666;44.350;9.222;2023-01-28T12:02:47;101697.44;;;9.06;51.81
32324;BME280;25666;44.350;9.222;2023-01-28T12:15:51;101694.78;;;9.01;50.76
32324;BME280;25666;44.350;9.222;2023-01-28T12:21:19;101695.28;;;9.03;50.23
32324;BME280;25666;44.350;9.222;2023-01-28T12:27:48;101664.53;;;8.99;49.88
32324;BME280;25666;44.350;9.222;2023-01-28T12:30:20;101671.75;;;9.00;49.73
32324;BME280;25666;44.350;9.222;2023-01-28T12:41:31;101661.72;;;8.91;51.52
32324;BME280;25666;44.350;9.222;2023-01-28T12:44:04;101662.63;;;9.08;54.81
32324;BME280;25666;44.350;9.222;2023-01-28T12:46:38;101659.81;;;9.00;53.84
32324;BME280;25666;44.350;9.222;2023-01-28T12:49:11;101666.66;;;8.94;55.33
32324;BME280;25666;44.350;9.222;2023-01-28T12:54:21;101662.06;;;8.89;54.97
32324;BME280;25666;44.350;9.222;2023-01-28T12:56:53;101676.00;;;8.98;55.86
32324;BME280;25666;44.350;9.222;2023-01-28T13:05:13;101669.41;;;8.94;56.13
32324;BME280;25666;44.350;9.222;2023-01-28T13:10:21;101700.72;;;8.86;54.32
32324;BME280;25666;44.350;9.222;2023-01-28T13:12:48;101674.44;;;8.83;54.65
32324;BME280;25666;44.350;9.222;2023-01-28T13:15:16;101679.53;;;8.68;54.77
32324;BME280;25666;44.350;9.222;2023-01-28T13:18:00;101671.56;;;8.75;54.65
32324;BME280;25666;44.350;9.222;2023-01-28T13:20:45;101670.88;;;8.69;54.78
32324;BME280;25666;44.350;9.222;2023-01-28T13:23:43;101672.34;;;8.67;54.64
32324;BME280;25666;44.350;9.222;2023-01-28T13:28:44;101674.34;;;8.75;55.13
32324;BME280;25666;44.350;9.222;2023-01-28T13:31:12;101668.44;;;8.68;55.65
32324;BME280;25666;44.350;9.222;2023-01-28T13:33:44;101668.88;;;8.61;55.29
32324;BME280;25666;44.350;9.222;2023-01-28T13:38:42;101673.78;;;8.64;54.32
32324;BME280;25666;44.350;9.222;2023-01-28T13:41:09;101676.25;;;8.66;53.10
32324;BME280;25666;44.350;9.222;2023-01-28T13:43:40;101686.22;;;8.67;53.76
32324;BME280;25666;44.350;9.222;2023-01-28T13:46:09;101663.78;;;8.77;52.06
32324;BME280;25666;44.350;9.222;2023-01-28T13:48:43;101670.81;;;8.83;53.23
32324;BME280;25666;44.350;9.222;2023-01-28T13:51:32;101679.97;;;8.83;54.05
32324;BME280;25666;44.350;9.222;2023-01-28T13:54:04;101687.97;;;8.85;54.29
32324;BME280;25666;44.350;9.222;2023-01-28T14:02:19;101675.69;;;8.55;52.69
32324;BME280;25666;44.350;9.222;2023-01-28T14:16:37;101712.94;;;8.63;52.40
32324;BME280;25666;44.350;9.222;2023-01-28T14:19:10;101693.09;;;8.69;52.66
32324;BME280;25666;44.350;9.222;2023-01-28T14:21:37;101676.00;;;8.76;52.38
32324;BME280;25666;44.350;9.222;2023-01-28T14:24:03;101693.03;;;8.83;53.64
32324;BME280;25666;44.350;9.222;2023-01-28T14:26:38;101681.31;;;8.86;53.40
32324;BME280;25666;44.350;9.222;2023-01-28T14:31:52;101692.66;;;8.76;51.44
32324;BME280;25666;44.350;9.222;2023-01-28T14:34:30;101679.69;;;8.71;51.55
32324;BME280;25666;44.350;9.222;2023-01-28T14:37:00;101680.28;;;8.82;51.21
32324;BME280;25666;44.350;9.222;2023-01-28T14:39:42;101690.19;;;8.74;51.93
32324;BME280;25666;44.350;9.222;2023-01-28T14:42:15;101688.56;;;8.73;51.65
32324;BME280;25666;44.350;9.222;2023-01-28T14:44:43;101689.38;;;8.74;51.95
32324;BME280;25666;44.350;9.222;2023-01-28T14:47:15;101697.06;;;8.77;53.85
32324;BME280;25666;44.350;9.222;2023-01-28T14:49:48;101691.34;;;8.73;53.37
32324;BME280;25666;44.350;9.222;2023-01-28T15:00:17;101700.97;;;8.76;52.47
32324;BME280;25666;44.350;9.222;2023-01-28T15:02:44;101715.47;;;8.73;51.32
32324;BME280;25666;44.350;9.222;2023-01-28T15:05:28;101708.19;;;8.77;51.34
32324;BME280;25666;44.350;9.222;2023-01-28T15:07:54;101710.75;;;8.73;51.00
32324;BME280;25666;44.350;9.222;2023-01-28T15:10:28;101718.56;;;8.71;51.22
32324;BME280;25666;44.350;9.222;2023-01-28T15:13:06;101709.13;;;8.72;51.74
32324;BME280;25666;44.350;9.222;2023-01-28T15:15:35;101714.38;;;8.74;51.22
32324;BME280;25666;44.350;9.222;2023-01-28T15:18:04;101708.28;;;8.72;52.56
32324;BME280;25666;44.350;9.222;2023-01-28T15:20:31;101717.03;;;8.65;51.66
32324;BME280;25666;44.350;9.222;2023-01-28T15:22:57;101708.72;;;8.65;52.60
32324;BME280;25666;44.350;9.222;2023-01-28T15:25:34;101719.63;;;8.61;52.04
32324;BME280;25666;44.350;9.222;2023-01-28T15:28:00;101721.75;;;8.65;52.75
32324;BME280;25666;44.350;9.222;2023-01-28T15:30:28;101731.06;;;8.60;51.82
32324;BME280;25666;44.350;9.222;2023-01-28T15:33:02;101730.41;;;8.63;51.13